Time;durP1;ratioP1;P1;durP2;ratioP2;P2;SDS_P1;SDS_P2;PMS_P1;PMS_P2;Temp;Humidity;BMP_temperature;BMP_pressure;BME280_temperature;BME280_humidity;BME280_pressure;Samples;Min_cycle;Max_cycle;Signal;HPM_P1;HPM_P2
2023/05/29 00:00:39;;;;;;;24.30;3.97;;;9.30;99.90;;;;;;5044949;28;20049;-64
2023/05/29 00:03:05;;;;;;;19.73;3.92;;;9.30;99.90;;;;;;5044687;28;20496;-63
2023/05/29 00:05:30;;;;;;;28.00;4.43;;;9.20;99.90;;;;;;5042712;28;20041;-65
2023/05/29 00:07:56;;;;;;;22.75;4.03;;;9.20;99.90;;;;;;5044505;28;20539;-64
2023/05/29 00:10:22;;;;;;;24.88;4.05;;;9.20;99.90;;;;;;5060651;28;20488;-63
2023/05/29 00:12:47;;;;;;;18.88;3.88;;;9.10;99.90;;;;;;5064582;28;20087;-63
2023/05/29 00:15:13;;;;;;;19.48;3.53;;;9.10;99.90;;;;;;5063858;28;20433;-61
2023/05/29 00:17:40;;;;;;;27.30;3.88;;;9.10;99.90;;;;;;5050053;28;20040;-62
2023/05/29 00:20:09;;;;;;;22.45;3.55;;;9.10;99.90;;;;;;5060139;28;20043;-64
2023/05/29 00:22:38;;;;;;;21.98;3.72;;;9.10;99.90;;;;;;5044115;28;20672;-63
2023/05/29 00:25:05;;;;;;;22.08;3.80;;;9.10;99.90;;;;;;5043607;28;20047;-62
2023/05/29 00:27:32;;;;;;;22.45;4.22;;;9.00;99.90;;;;;;5027756;28;20045;-63
2023/05/29 00:29:58;;;;;;;16.65;3.55;;;9.00;99.90;;;;;;5077947;28;20141;-64
2023/05/29 00:32:24;;;;;;;15.25;3.20;;;9.00;99.90;;;;;;5044829;28;20200;-63
2023/05/29 00:34:50;;;;;;;19.10;3.47;;;9.00;99.90;;;;;;5044954;28;20037;-62
2023/05/29 00:37:15;;;;;;;19.75;4.05;;;9.00;99.90;;;;;;5042068;28;20071;-62
2023/05/29 00:39:41;;;;;;;22.50;3.40;;;9.00;99.90;;;;;;5045872;28;20036;-64
2023/05/29 00:42:07;;;;;;;18.58;3.22;;;8.90;99.90;;;;;;5061211;28;20509;-63
2023/05/29 00:44:32;;;;;;;22.65;3.42;;;8.90;99.90;;;;;;5044213;28;20132;-63
2023/05/29 00:46:59;;;;;;;27.60;3.60;;;8.90;99.90;;;;;;5043518;28;20155;-64
2023/05/29 00:49:25;;;;;;;26.02;4.45;;;8.90;99.90;;;;;;5043993;28;20076;-64
2023/05/29 00:51:53;;;;;;;21.65;3.72;;;8.90;99.90;;;;;;5058905;28;20037;-61
2023/05/29 00:54:23;;;;;;;20.25;3.75;;;8.90;99.90;;;;;;5030089;28;20066;-63
2023/05/29 00:56:49;;;;;;;23.48;3.40;;;8.90;99.90;;;;;;5042598;28;20044;-65
2023/05/29 00:59:15;;;;;;;26.42;3.30;;;8.80;99.90;;;;;;5045106;28;20639;-63
2023/05/29 01:01:42;;;;;;;19.95;3.55;;;8.80;99.90;;;;;;5043228;28;20128;-63
2023/05/29 01:04:12;;;;;;;27.45;4.63;;;8.80;99.90;;;;;;5045039;28;20063;-61
2023/05/29 01:06:39;;;;;;;19.73;3.40;;;8.80;99.90;;;;;;5041687;28;20427;-64
2023/05/29 01:09:05;;;;;;;20.60;3.42;;;8.70;99.90;;;;;;5045988;28;20056;-64
2023/05/29 01:11:58;;;;;;;21.20;3.35;;;8.70;99.90;;;;;;5043718;28;20041;-62
2023/05/29 01:14:51;;;;;;;23.40;3.55;;;8.70;99.90;;;;;;5044669;28;20043;-64
2023/05/29 01:17:31;;;;;;;21.08;3.60;;;8.70;99.90;;;;;;5043210;28;20427;-64
2023/05/29 01:20:34;;;;;;;22.20;3.72;;;8.70;99.90;;;;;;5045157;28;20045;-62
2023/05/29 01:23:09;;;;;;;19.85;3.95;;;8.70;99.90;;;;;;5044626;28;20045;-63
2023/05/29 01:26:01;;;;;;;22.25;3.60;;;8.70;99.90;;;;;;5044635;28;20587;-63
2023/05/29 01:28:41;;;;;;;31.48;6.13;;;8.70;99.90;;;;;;5043657;28;20074;-64
2023/05/29 01:31:07;;;;;;;20.02;3.90;;;8.70;99.90;;;;;;5043203;28;20410;-63
2023/05/29 01:33:33;;;;;;;29.70;4.55;;;8.70;99.90;;;;;;5042949;28;20423;-62
2023/05/29 01:35:59;;;;;;;24.17;4.95;;;8.70;99.90;;;;;;5041538;28;20037;-62
2023/05/29 01:38:24;;;;;;;21.30;3.83;;;8.70;99.90;;;;;;5043938;28;20037;-64
2023/05/29 01:40:51;;;;;;;19.95;4.20;;;8.70;99.90;;;;;;5043342;28;20079;-64
2023/05/29 01:43:17;;;;;;;24.95;4.53;;;8.70;99.90;;;;;;5043760;28;20048;-62
2023/05/29 01:45:43;;;;;;;18.20;4.03;;;8.70;99.90;;;;;;5042228;28;20044;-62
2023/05/29 01:48:09;;;;;;;25.35;4.68;;;8.70;99.90;;;;;;5043213;28;20032;-63
2023/05/29 01:50:36;;;;;;;25.10;3.80;;;8.70;99.90;;;;;;5042926;28;20124;-64
2023/05/29 01:53:02;;;;;;;28.13;4.28;;;8.60;99.90;;;;;;5043013;28;20048;-63
2023/05/29 01:55:28;;;;;;;21.85;3.58;;;8.70;99.90;;;;;;5042761;28;20128;-62
2023/05/29 01:57:54;;;;;;;24.77;4.30;;;8.70;99.90;;;;;;5042857;28;20045;-63
2023/05/29 02:00:20;;;;;;;28.45;4.45;;;8.70;99.90;;;;;;5043183;28;20049;-63
2023/05/29 02:02:45;;;;;;;27.30;4.30;;;8.70;99.90;;;;;;5044492;28;20041;-62
2023/05/29 02:05:11;;;;;;;21.08;4.25;;;8.70;99.90;;;;;;5058042;28;20048;-65
2023/05/29 02:07:37;;;;;;;22.40;4.72;;;8.70;99.90;;;;;;5044028;28;20049;-63
2023/05/29 02:10:06;;;;;;;20.70;4.30;;;8.70;99.90;;;;;;5047244;28;20567;-64
2023/05/29 02:12:31;;;;;;;24.88;4.45;;;8.70;99.90;;;;;;5046881;28;20449;-65
2023/05/29 02:14:57;;;;;;;23.42;4.43;;;8.70;99.90;;;;;;5046587;28;20049;-63
2023/05/29 02:17:24;;;;;;;20.52;4.00;;;8.70;99.90;;;;;;5047788;28;20037;-63
2023/05/29 02:19:50;;;;;;;18.55;4.22;;;8.70;99.90;;;;;;5046435;28;20119;-63
2023/05/29 02:22:17;;;;;;;20.35;4.18;;;8.70;99.90;;;;;;5044993;28;20136;-65
2023/05/29 02:24:43;;;;;;;21.02;4.03;;;8.70;99.90;;;;;;5039479;28;20129;-63
2023/05/29 02:27:09;;;;;;;20.95;4.53;;;8.70;99.90;;;;;;5049723;28;20495;-63
2023/05/29 02:29:34;;;;;;;23.63;3.78;;;8.70;99.90;;;;;;5066473;28;20824;-63
2023/05/29 02:32:00;;;;;;;21.45;4.05;;;8.70;99.90;;;;;;5060670;28;20041;-64
2023/05/29 02:34:26;;;;;;;22.35;3.88;;;8.70;99.90;;;;;;5067095;28;20080;-65
2023/05/29 02:36:52;;;;;;;24.40;4.78;;;8.70;99.90;;;;;;5064135;28;20048;-64
2023/05/29 02:39:18;;;;;;;24.08;3.92;;;8.70;99.90;;;;;;5054259;28;20043;-65
2023/05/29 02:41:44;;;;;;;21.70;4.30;;;8.60;99.90;;;;;;5046287;28;20040;-64
2023/05/29 02:44:10;;;;;;;22.20;4.38;;;8.60;99.90;;;;;;5046927;28;20041;-66
2023/05/29 02:46:35;;;;;;;19.38;3.85;;;8.50;99.90;;;;;;5047084;28;20067;-63
2023/05/29 02:49:01;;;;;;;30.13;4.25;;;8.50;99.90;;;;;;5048243;28;20045;-64
2023/05/29 02:51:27;;;;;;;24.00;3.90;;;8.50;99.90;;;;;;5044514;28;20563;-63
2023/05/29 02:53:53;;;;;;;24.55;4.85;;;8.50;99.90;;;;;;5046724;28;20041;-63
2023/05/29 02:56:23;;;;;;;24.90;4.00;;;8.50;99.90;;;;;;5046790;28;20037;-63
2023/05/29 02:58:50;;;;;;;25.13;4.22;;;8.50;99.90;;;;;;5046569;28;20056;-64
2023/05/29 03:01:16;;;;;;;22.25;4.18;;;8.50;99.90;;;;;;5062628;28;20044;-66
2023/05/29 03:03:42;;;;;;;21.83;4.43;;;8.50;99.90;;;;;;5046402;28;20048;-62
2023/05/29 03:06:09;;;;;;;16.98;3.63;;;8.50;99.90;;;;;;5044060;28;20382;-64
2023/05/29 03:08:39;;;;;;;24.05;3.72;;;8.50;99.90;;;;;;5046165;28;20044;-64
2023/05/29 03:11:11;;;;;;;26.10;3.80;;;8.50;99.90;;;;;;5062991;28;20049;-64
2023/05/29 03:13:38;;;;;;;22.38;3.80;;;8.50;99.90;;;;;;5046036;28;20095;-64
2023/05/29 03:16:04;;;;;;;22.52;4.38;;;8.50;99.90;;;;;;5064759;28;20093;-62
2023/05/29 03:18:30;;;;;;;22.67;4.00;;;8.50;99.90;;;;;;5061008;28;20443;-63
2023/05/29 03:20:56;;;;;;;28.08;4.07;;;8.50;99.90;;;;;;5062868;28;20044;-62
2023/05/29 03:23:22;;;;;;;26.00;3.92;;;8.50;99.90;;;;;;5067599;28;20044;-65
2023/05/29 03:25:48;;;;;;;20.17;3.75;;;8.60;99.90;;;;;;5047173;28;20661;-63
2023/05/29 03:28:14;;;;;;;18.60;3.65;;;8.50;99.90;;;;;;5046993;28;20428;-63
2023/05/29 03:30:39;;;;;;;21.15;4.55;;;8.60;99.90;;;;;;5045311;28;20080;-64
2023/05/29 03:33:05;;;;;;;20.27;3.85;;;8.60;99.90;;;;;;5075369;28;20566;-65
2023/05/29 03:35:31;;;;;;;15.32;3.40;;;8.60;99.90;;;;;;5046883;28;20472;-64
2023/05/29 03:37:57;;;;;;;20.77;3.35;;;8.60;99.90;;;;;;5067030;28;20048;-64
2023/05/29 03:40:22;;;;;;;22.55;4.43;;;8.60;99.90;;;;;;5051126;28;20052;-64
2023/05/29 03:42:48;;;;;;;18.63;3.75;;;8.60;99.90;;;;;;5045108;28;20041;-64
2023/05/29 03:45:14;;;;;;;21.65;4.15;;;8.60;99.90;;;;;;5046030;28;20040;-66
2023/05/29 03:47:40;;;;;;;22.88;3.55;;;8.60;99.90;;;;;;5039777;28;20083;-64
2023/05/29 03:50:06;;;;;;;23.63;3.85;;;8.60;99.90;;;;;;5027968;28;20101;-65
2023/05/29 03:52:32;;;;;;;21.02;3.63;;;8.70;99.90;;;;;;5044756;28;20548;-63
2023/05/29 03:54:57;;;;;;;23.70;4.55;;;8.70;99.90;;;;;;5044939;28;20043;-64
2023/05/29 03:57:23;;;;;;;19.65;3.45;;;8.80;99.90;;;;;;5045051;28;20052;-62
2023/05/29 03:59:49;;;;;;;22.98;3.40;;;8.80;99.90;;;;;;5045991;28;20056;-63
2023/05/29 04:02:14;;;;;;;15.75;3.63;;;8.90;99.90;;;;;;5046112;28;20045;-64
2023/05/29 04:04:40;;;;;;;20.88;3.58;;;8.90;99.90;;;;;;5044407;28;20045;-62
2023/05/29 04:07:06;;;;;;;24.10;4.40;;;9.00;99.90;;;;;;5042594;28;20072;-64
2023/05/29 04:09:33;;;;;;;20.70;3.33;;;9.10;99.90;;;;;;5044859;28;20455;-64
2023/05/29 04:12:02;;;;;;;19.58;3.60;;;9.10;99.90;;;;;;5046224;28;20150;-64
2023/05/29 04:14:28;;;;;;;22.30;3.53;;;9.20;99.90;;;;;;5044136;28;20045;-63
2023/05/29 04:16:54;;;;;;;20.00;3.33;;;9.20;99.90;;;;;;5044204;28;20120;-64
2023/05/29 04:19:20;;;;;;;21.98;3.65;;;9.20;99.90;;;;;;5044902;28;20037;-64
2023/05/29 04:21:47;;;;;;;16.35;3.17;;;9.30;99.90;;;;;;5044412;28;20567;-64
2023/05/29 04:24:14;;;;;;;21.08;3.45;;;9.30;99.90;;;;;;5044250;28;20490;-63
2023/05/29 04:26:41;;;;;;;19.80;3.65;;;9.30;99.90;;;;;;5044125;28;20448;-64
2023/05/29 04:29:12;;;;;;;23.42;3.90;;;9.40;99.90;;;;;;5044335;28;20056;-64
2023/05/29 04:31:38;;;;;;;22.08;3.92;;;9.40;99.90;;;;;;5045567;28;20127;-65
2023/05/29 04:34:06;;;;;;;21.95;3.95;;;9.40;99.90;;;;;;5047779;28;20083;-64
2023/05/29 04:36:37;;;;;;;21.00;3.25;;;9.50;99.90;;;;;;5045254;28;20040;-65
2023/05/29 04:39:03;;;;;;;16.45;3.55;;;9.60;99.90;;;;;;5043132;28;20108;-64
2023/05/29 04:41:30;;;;;;;26.63;4.47;;;9.70;99.90;;;;;;5045842;28;20647;-63
2023/05/29 04:43:57;;;;;;;17.00;3.30;;;9.70;99.90;;;;;;5060873;28;20055;-65
2023/05/29 04:46:23;;;;;;;23.08;3.60;;;9.70;99.90;;;;;;5043340;28;20036;-66
2023/05/29 04:48:52;;;;;;;23.15;3.90;;;9.80;99.90;;;;;;5060598;28;20076;-65
2023/05/29 04:51:22;;;;;;;22.92;3.72;;;9.80;99.90;;;;;;5066530;28;20040;-65
2023/05/29 04:53:48;;;;;;;19.80;3.83;;;9.80;99.90;;;;;;5061176;28;20044;-65
2023/05/29 04:56:15;;;;;;;16.20;3.15;;;9.80;99.90;;;;;;5027078;28;20044;-66
2023/05/29 04:58:41;;;;;;;23.33;3.72;;;9.80;99.90;;;;;;5043461;28;20048;-64
2023/05/29 05:01:14;;;;;;;20.50;3.80;;;9.80;99.90;;;;;;5044106;28;20052;-64
2023/05/29 05:03:40;;;;;;;23.58;4.05;;;9.90;99.90;;;;;;5064894;28;20041;-64
2023/05/29 05:06:07;;;;;;;13.40;3.13;;;9.90;99.90;;;;;;5045343;28;20048;-63
2023/05/29 05:08:33;;;;;;;16.48;3.63;;;9.90;99.90;;;;;;5060290;28;20037;-66
2023/05/29 05:11:00;;;;;;;20.70;3.70;;;9.90;99.90;;;;;;5045198;28;20446;-65
2023/05/29 05:13:27;;;;;;;18.15;3.33;;;9.90;99.90;;;;;;5045374;28;20708;-65
2023/05/29 05:15:53;;;;;;;29.52;4.30;;;10.00;99.90;;;;;;5044703;28;20523;-63
2023/05/29 05:18:19;;;;;;;20.60;3.63;;;10.00;99.90;;;;;;5060761;28;20040;-63
2023/05/29 05:20:45;;;;;;;24.08;4.50;;;10.00;99.90;;;;;;5042386;28;20078;-66
2023/05/29 05:23:11;;;;;;;22.70;3.28;;;10.10;99.90;;;;;;5043490;28;20044;-64
2023/05/29 05:25:38;;;;;;;25.85;3.97;;;10.10;99.90;;;;;;5060092;28;20045;-64
2023/05/29 05:28:04;;;;;;;22.23;4.10;;;10.20;99.90;;;;;;5027330;28;20547;-64
2023/05/29 05:30:30;;;;;;;15.60;3.58;;;10.20;99.90;;;;;;5043482;28;20037;-65
2023/05/29 05:32:56;;;;;;;27.40;4.30;;;10.30;99.90;;;;;;5057262;28;20037;-63
2023/05/29 05:35:22;;;;;;;21.95;4.28;;;10.30;99.90;;;;;;5061769;28;20044;-65
2023/05/29 05:37:47;;;;;;;28.67;4.00;;;10.40;99.90;;;;;;5046389;28;20036;-63
2023/05/29 05:40:13;;;;;;;23.90;3.88;;;10.40;99.90;;;;;;5033039;28;20037;-64
2023/05/29 05:42:39;;;;;;;18.58;3.20;;;10.50;99.90;;;;;;5027514;28;20041;-64
2023/05/29 05:45:06;;;;;;;23.42;3.88;;;10.60;99.90;;;;;;5048108;28;20120;-65
2023/05/29 05:47:32;;;;;;;20.38;4.45;;;10.80;99.90;;;;;;5046874;28;20461;-66
2023/05/29 05:49:58;;;;;;;22.92;3.85;;;11.10;99.90;;;;;;5046794;28;20045;-65
2023/05/29 05:52:25;;;;;;;26.77;4.68;;;11.10;99.90;;;;;;5045644;28;20118;-63
2023/05/29 05:54:51;;;;;;;19.02;3.60;;;11.20;99.90;;;;;;5046956;28;20045;-63
2023/05/29 05:57:17;;;;;;;18.65;4.50;;;11.30;99.90;;;;;;5047308;28;20049;-66
2023/05/29 05:59:43;;;;;;;25.70;4.65;;;11.40;99.90;;;;;;5046887;28;20056;-63
2023/05/29 06:02:08;;;;;;;25.95;4.50;;;11.40;99.90;;;;;;5047181;28;20049;-63
2023/05/29 06:04:34;;;;;;;27.48;4.53;;;11.40;99.90;;;;;;5047212;28;20041;-63
2023/05/29 06:07:00;;;;;;;23.70;4.95;;;11.40;99.90;;;;;;5048670;28;20051;-62
2023/05/29 06:09:26;;;;;;;24.60;4.38;;;11.40;99.90;;;;;;5063744;28;20129;-61
2023/05/29 06:11:51;;;;;;;27.20;4.03;;;11.50;99.90;;;;;;5063377;28;20511;-63
2023/05/29 06:14:17;;;;;;;20.73;4.00;;;11.60;99.90;;;;;;5067117;28;20048;-63
2023/05/29 06:16:43;;;;;;;25.80;4.93;;;11.70;99.90;;;;;;5061666;28;20139;-62
2023/05/29 06:19:08;;;;;;;24.85;4.72;;;11.70;99.90;;;;;;5048068;28;20037;-64
2023/05/29 06:21:34;;;;;;;26.58;4.68;;;11.80;99.90;;;;;;5046420;28;20545;-65
2023/05/29 06:24:00;;;;;;;23.20;4.30;;;11.80;99.90;;;;;;5047949;28;20047;-64
2023/05/29 06:26:26;;;;;;;20.15;4.22;;;11.90;99.90;;;;;;5063128;28;20047;-62
2023/05/29 06:28:52;;;;;;;23.13;4.38;;;11.90;99.90;;;;;;5047538;28;20041;-62
2023/05/29 06:31:18;;;;;;;21.23;4.70;;;11.80;99.90;;;;;;5047234;28;20060;-63
2023/05/29 06:33:45;;;;;;;26.35;4.90;;;11.80;99.90;;;;;;5046316;28;20041;-62
2023/05/29 06:36:11;;;;;;;20.63;4.38;;;11.80;99.90;;;;;;5045866;28;20065;-65
2023/05/29 06:38:40;;;;;;;28.52;4.60;;;11.70;99.90;;;;;;5030281;28;20037;-65
2023/05/29 06:41:05;;;;;;;28.63;5.25;;;11.80;99.90;;;;;;5046720;28;20048;-66
2023/05/29 06:43:31;;;;;;;18.85;4.30;;;11.80;99.90;;;;;;5046439;28;20115;-63
2023/05/29 06:45:57;;;;;;;22.40;4.35;;;11.90;99.90;;;;;;5045471;28;20045;-64
2023/05/29 06:48:22;;;;;;;21.60;4.82;;;12.00;99.90;;;;;;5047436;28;20033;-64
2023/05/29 06:50:48;;;;;;;21.52;4.68;;;12.00;99.90;;;;;;5044277;28;20043;-65
2023/05/29 06:53:14;;;;;;;24.60;4.85;;;12.00;99.90;;;;;;5045950;28;20068;-62
2023/05/29 06:55:42;;;;;;;29.17;5.13;;;12.00;99.90;;;;;;5063826;28;20043;-65
2023/05/29 06:58:08;;;;;;;22.42;4.40;;;11.90;99.90;;;;;;5066063;28;20059;-63
2023/05/29 07:00:34;;;;;;;21.33;4.53;;;11.90;99.90;;;;;;5067139;28;20040;-64
2023/05/29 07:03:00;;;;;;;21.02;4.55;;;11.80;99.90;;;;;;5054284;28;20447;-66
2023/05/29 07:05:29;;;;;;;26.67;4.35;;;11.80;99.90;;;;;;5063597;28;20355;-65
2023/05/29 07:07:55;;;;;;;28.83;4.10;;;11.70;99.90;;;;;;5044594;28;20073;-64
2023/05/29 07:10:20;;;;;;;24.20;6.18;;;11.70;99.90;;;;;;5049739;28;20533;-64
2023/05/29 07:12:46;;;;;;;21.55;4.57;;;11.80;99.90;;;;;;5029421;28;20068;-64
2023/05/29 07:15:12;;;;;;;30.25;5.03;;;11.80;99.90;;;;;;5046432;28;20028;-66
2023/05/29 07:17:37;;;;;;;26.67;5.03;;;11.80;99.90;;;;;;5052236;28;20037;-65
2023/05/29 07:20:07;;;;;;;22.75;4.70;;;11.90;99.90;;;;;;5065613;28;20040;-66
2023/05/29 07:22:33;;;;;;;26.92;5.03;;;11.90;99.90;;;;;;5064635;28;20036;-66
2023/05/29 07:24:59;;;;;;;16.70;4.22;;;11.90;99.90;;;;;;5059206;28;20048;-65
2023/05/29 07:27:24;;;;;;;27.95;4.55;;;12.00;99.90;;;;;;5048877;28;20399;-65
2023/05/29 07:29:50;;;;;;;22.88;4.05;;;12.00;99.90;;;;;;5064205;28;20045;-64
2023/05/29 07:32:16;;;;;;;19.65;4.10;;;12.10;99.90;;;;;;5061127;28;20048;-66
2023/05/29 07:34:41;;;;;;;24.40;6.10;;;12.10;99.90;;;;;;5048235;28;20397;-65
2023/05/29 07:37:11;;;;;;;29.17;4.97;;;12.20;99.90;;;;;;5049365;28;20221;-62
2023/05/29 07:39:37;;;;;;;20.52;4.20;;;12.10;99.90;;;;;;5044966;28;20044;-64
2023/05/29 07:42:03;;;;;;;21.48;4.57;;;12.10;99.90;;;;;;5045502;28;20099;-66
2023/05/29 07:44:28;;;;;;;24.25;4.60;;;12.20;99.90;;;;;;5046447;28;20043;-63
2023/05/29 07:46:54;;;;;;;31.55;4.97;;;12.40;99.90;;;;;;5046297;28;20041;-64
2023/05/29 07:49:20;;;;;;;23.15;4.72;;;12.40;99.90;;;;;;5039516;28;20910;-66
2023/05/29 07:51:46;;;;;;;23.95;4.72;;;12.40;99.90;;;;;;5056726;28;20089;-65
2023/05/29 07:54:11;;;;;;;22.90;4.63;;;12.40;99.90;;;;;;5050830;28;20069;-65
2023/05/29 07:56:38;;;;;;;25.17;4.47;;;12.40;99.90;;;;;;5044507;28;20044;-64
2023/05/29 07:59:05;;;;;;;21.73;4.32;;;12.40;99.90;;;;;;5045737;28;20053;-65
2023/05/29 08:01:31;;;;;;;21.67;5.13;;;12.50;99.90;;;;;;5043265;28;20045;-66
2023/05/29 08:03:56;;;;;;;18.00;4.43;;;12.60;99.90;;;;;;5044730;28;20043;-64
2023/05/29 08:06:22;;;;;;;22.45;4.82;;;12.60;99.90;;;;;;5042295;28;20041;-66
2023/05/29 08:08:48;;;;;;;22.77;4.82;;;12.70;99.90;;;;;;5062201;28;20507;-65
2023/05/29 08:11:13;;;;;;;21.33;5.05;;;12.80;99.90;;;;;;5044007;28;20044;-66
2023/05/29 08:13:39;;;;;;;25.10;4.82;;;12.90;99.90;;;;;;5058275;28;20033;-64
2023/05/29 08:16:05;;;;;;;23.95;4.50;;;12.90;99.90;;;;;;5046726;28;20095;-67
2023/05/29 08:18:35;;;;;;;21.58;4.97;;;13.00;99.90;;;;;;5060796;28;20041;-68
2023/05/29 08:21:00;;;;;;;24.25;4.50;;;13.30;99.90;;;;;;5059003;28;20430;-64
2023/05/29 08:23:26;;;;;;;26.92;4.97;;;13.20;99.90;;;;;;5045112;28;20080;-64
2023/05/29 08:25:54;;;;;;;29.58;5.07;;;13.20;99.90;;;;;;5051799;28;20086;-63
2023/05/29 08:28:21;;;;;;;22.95;4.43;;;13.20;99.90;;;;;;5064091;28;20539;-63
2023/05/29 08:30:46;;;;;;;26.48;4.93;;;13.10;99.90;;;;;;5047313;28;20062;-64
2023/05/29 08:33:12;;;;;;;22.63;4.93;;;13.20;99.90;;;;;;5045217;28;20037;-62
2023/05/29 08:35:37;;;;;;;25.95;4.35;;;13.30;99.90;;;;;;5042568;28;20083;-64
2023/05/29 08:38:03;;;;;;;22.25;4.65;;;13.30;99.90;;;;;;5056723;28;20037;-62
2023/05/29 08:40:29;;;;;;;18.48;4.43;;;13.30;99.90;;;;;;5044059;28;20040;-64
2023/05/29 08:43:07;;;;;;;25.52;4.95;;;13.30;99.90;;;;;;5050489;28;20102;-64
2023/05/29 08:45:34;;;;;;;25.25;4.75;;;13.30;99.90;;;;;;5055876;28;20076;-66
2023/05/29 08:48:01;;;;;;;32.60;5.13;;;13.30;99.90;;;;;;5046887;28;20622;-62
2023/05/29 08:50:26;;;;;;;23.30;4.60;;;13.30;99.90;;;;;;5045949;28;20091;-65
2023/05/29 08:52:52;;;;;;;19.35;4.32;;;13.20;99.90;;;;;;5053916;28;20877;-67
2023/05/29 08:55:18;;;;;;;25.33;4.38;;;13.10;99.90;;;;;;5060190;28;20072;-65
2023/05/29 08:57:44;;;;;;;34.97;5.25;;;13.10;99.90;;;;;;5060167;28;20175;-63
2023/05/29 09:00:19;;;;;;;19.95;4.28;;;13.10;99.90;;;;;;5060561;28;20075;-65
2023/05/29 09:02:48;;;;;;;30.98;4.65;;;13.00;99.90;;;;;;5061232;28;20044;-64
2023/05/29 09:05:14;;;;;;;22.90;4.45;;;12.90;99.90;;;;;;5060994;28;20119;-65
2023/05/29 09:07:40;;;;;;;22.02;5.32;;;13.00;99.90;;;;;;5062096;28;20646;-67
2023/05/29 09:10:08;;;;;;;29.30;4.85;;;13.00;99.90;;;;;;5062800;28;20060;-65
2023/05/29 09:12:34;;;;;;;22.10;5.18;;;13.10;99.90;;;;;;5063743;28;20045;-64
2023/05/29 09:15:00;;;;;;;23.92;5.07;;;13.10;99.90;;;;;;5042227;28;20412;-65
2023/05/29 09:17:31;;;;;;;37.65;4.90;;;13.10;99.90;;;;;;5042666;28;20052;-63
2023/05/29 09:19:57;;;;;;;27.77;5.32;;;13.20;99.90;;;;;;5044856;28;20053;-66
2023/05/29 09:22:23;;;;;;;22.00;4.47;;;13.30;99.90;;;;;;5042980;28;20536;-63
2023/05/29 09:24:50;;;;;;;26.15;4.80;;;13.30;99.90;;;;;;5060305;28;20064;-64
2023/05/29 09:27:17;;;;;;;23.25;4.68;;;13.30;99.90;;;;;;5060211;28;20387;-64
2023/05/29 09:29:44;;;;;;;22.48;4.38;;;13.40;99.90;;;;;;5042995;28;20079;-67
2023/05/29 09:32:11;;;;;;;26.23;4.80;;;13.50;99.90;;;;;;5050076;28;20049;-65
2023/05/29 09:34:37;;;;;;;22.95;4.28;;;13.40;99.90;;;;;;5062136;28;20403;-65
2023/05/29 09:37:08;;;;;;;31.60;5.18;;;13.50;99.90;;;;;;5062893;28;20485;-64
2023/05/29 09:39:54;;;;;;;25.42;4.72;;;13.50;99.90;;;;;;5055458;28;20033;-62
2023/05/29 09:42:19;;;;;;;16.40;4.50;;;13.50;99.90;;;;;;5042904;28;20053;-62
2023/05/29 09:44:48;;;;;;;20.20;4.50;;;13.60;99.90;;;;;;5049529;28;20041;-65
2023/05/29 09:47:17;;;;;;;27.17;5.03;;;13.60;99.90;;;;;;5044459;28;20044;-65
2023/05/29 09:49:43;;;;;;;23.80;5.07;;;13.60;99.90;;;;;;5061531;28;20044;-63
2023/05/29 09:52:15;;;;;;;27.63;4.32;;;13.50;99.90;;;;;;5060919;28;20605;-66
2023/05/29 09:54:45;;;;;;;26.38;4.30;;;13.60;99.90;;;;;;5042156;28;20511;-67
2023/05/29 09:57:15;;;;;;;29.23;4.50;;;13.60;99.90;;;;;;5051563;28;20044;-66
2023/05/29 09:59:44;;;;;;;21.88;4.85;;;13.70;99.90;;;;;;5052452;28;20040;-66
2023/05/29 10:02:13;;;;;;;25.17;4.97;;;13.70;99.90;;;;;;5049371;28;20543;-66
2023/05/29 10:04:43;;;;;;;23.02;4.80;;;13.80;99.90;;;;;;5052516;28;20625;-66
2023/05/29 10:07:20;;;;;;;24.17;4.55;;;13.80;99.90;;;;;;5047300;28;20651;-66
2023/05/29 10:09:50;;;;;;;20.17;4.72;;;13.90;99.90;;;;;;5049550;28;20044;-64
2023/05/29 10:12:23;;;;;;;23.63;4.78;;;13.90;99.90;;;;;;5050781;28;20265;-66
2023/05/29 10:14:56;;;;;;;21.95;4.80;;;13.90;99.90;;;;;;5053035;28;20068;-66
2023/05/29 10:17:28;;;;;;;22.90;4.45;;;13.90;99.90;;;;;;5048680;28;20044;-65
2023/05/29 10:19:58;;;;;;;24.38;4.18;;;13.90;99.90;;;;;;5051315;28;20114;-65
2023/05/29 10:22:26;;;;;;;24.83;4.40;;;13.90;99.90;;;;;;5048380;28;20051;-65
2023/05/29 10:24:52;;;;;;;22.25;4.20;;;13.90;99.90;;;;;;5052606;28;20050;-65
2023/05/29 10:27:20;;;;;;;27.73;4.75;;;13.80;99.90;;;;;;5051361;28;20048;-64
2023/05/29 10:29:53;;;;;;;22.58;4.03;;;13.70;99.90;;;;;;5053991;28;20113;-63
2023/05/29 10:32:27;;;;;;;23.80;5.20;;;13.70;99.90;;;;;;5058383;28;20048;-63
2023/05/29 10:35:24;;;;;;;24.08;4.63;;;13.70;99.90;;;;;;5063667;28;20500;-63
2023/05/29 10:37:57;;;;;;;35.38;4.78;;;13.80;99.90;;;;;;5037378;28;20045;-63
2023/05/29 10:40:25;;;;;;;17.73;4.22;;;13.90;99.90;;;;;;5047082;28;20412;-63
2023/05/29 10:42:57;;;;;;;25.77;4.60;;;14.00;99.90;;;;;;5048508;28;20055;-65
2023/05/29 10:45:32;;;;;;;24.55;5.13;;;14.00;99.90;;;;;;5050912;28;20110;-63
2023/05/29 10:48:07;;;;;;;27.70;4.97;;;14.10;99.90;;;;;;5055835;28;20668;-65
2023/05/29 10:50:43;;;;;;;21.55;3.88;;;14.20;99.90;;;;;;5034983;28;20049;-66
2023/05/29 10:53:18;;;;;;;22.90;4.60;;;14.20;98.20;;;;;;5057874;28;20037;-65
2023/05/29 10:55:45;;;;;;;18.83;3.50;;;14.20;98.10;;;;;;5046553;28;20345;-63
2023/05/29 10:58:14;;;;;;;32.42;4.82;;;14.20;99.30;;;;;;5057709;28;20536;-65
2023/05/29 11:00:45;;;;;;;21.88;4.18;;;14.20;99.90;;;;;;5043061;28;20914;-62
2023/05/29 11:03:15;;;;;;;23.52;4.85;;;14.20;99.80;;;;;;5052450;28;20068;-61
2023/05/29 11:06:01;;;;;;;21.48;5.00;;;14.30;99.90;;;;;;5049497;28;20060;-63
2023/05/29 11:08:35;;;;;;;25.92;4.35;;;14.30;99.90;;;;;;5045717;28;20049;-62
2023/05/29 11:11:01;;;;;;;26.70;4.22;;;14.40;99.90;;;;;;5050345;28;20037;-65
2023/05/29 11:13:35;;;;;;;18.08;4.43;;;14.50;99.90;;;;;;5041641;28;20056;-63
2023/05/29 11:16:12;;;;;;;24.53;4.80;;;14.50;99.90;;;;;;5048070;28;20101;-63
2023/05/29 11:18:41;;;;;;;30.67;5.63;;;14.40;99.40;;;;;;5046301;28;20275;-65
2023/05/29 11:21:42;;;;;;;22.63;4.00;;;14.20;99.70;;;;;;5059342;28;20401;-64
2023/05/29 11:24:14;;;;;;;22.67;3.90;;;14.30;99.90;;;;;;5044121;28;20070;-64
2023/05/29 11:26:45;;;;;;;31.95;4.97;;;14.40;99.90;;;;;;5045793;28;20451;-63
2023/05/29 11:29:11;;;;;;;21.63;3.92;;;14.40;99.90;;;;;;5055300;28;20123;-63
2023/05/29 11:31:39;;;;;;;25.33;4.32;;;14.40;99.90;;;;;;5059700;28;20112;-64
2023/05/29 11:34:05;;;;;;;21.23;4.32;;;14.50;99.90;;;;;;5044392;28;20060;-63
2023/05/29 11:36:34;;;;;;;25.33;3.92;;;14.20;98.40;;;;;;5047215;28;20048;-64
2023/05/29 11:39:01;;;;;;;20.10;3.83;;;14.10;98.90;;;;;;5060667;28;20651;-65
2023/05/29 11:41:27;;;;;;;22.85;4.22;;;14.00;99.50;;;;;;5057089;28;20404;-64
2023/05/29 11:43:57;;;;;;;20.65;4.05;;;13.90;99.70;;;;;;5059180;28;20045;-63
2023/05/29 11:46:23;;;;;;;20.33;4.68;;;14.00;99.90;;;;;;5054300;28;20048;-63
2023/05/29 11:48:49;;;;;;;21.75;4.60;;;14.10;99.90;;;;;;5058094;28;20047;-63
2023/05/29 11:51:15;;;;;;;18.52;4.05;;;14.10;99.90;;;;;;5042880;28;20047;-65
2023/05/29 11:53:47;;;;;;;19.65;3.95;;;14.20;99.60;;;;;;5046150;28;20041;-64
2023/05/29 11:56:13;;;;;;;25.45;4.78;;;14.30;99.70;;;;;;5066257;28;20036;-64
2023/05/29 11:58:39;;;;;;;19.58;3.65;;;14.40;99.90;;;;;;5050382;28;20559;-64
2023/05/29 12:01:06;;;;;;;21.85;4.10;;;14.40;97.70;;;;;;5044071;28;20053;-61
2023/05/29 12:03:40;;;;;;;20.08;4.03;;;14.20;98.10;;;;;;5056819;28;20041;-64
2023/05/29 12:06:07;;;;;;;26.20;4.30;;;14.30;98.10;;;;;;5063604;28;20071;-64
2023/05/29 12:08:33;;;;;;;21.58;4.50;;;14.40;98.70;;;;;;5055826;28;20342;-65
2023/05/29 12:10:58;;;;;;;23.23;4.13;;;14.40;98.90;;;;;;5057748;28;20048;-63
2023/05/29 12:13:24;;;;;;;18.60;4.38;;;14.50;99.00;;;;;;5054241;28;20117;-65
2023/05/29 12:15:54;;;;;;;18.80;3.90;;;14.60;98.80;;;;;;5066392;28;20041;-62
2023/05/29 12:18:20;;;;;;;20.60;3.70;;;14.60;98.00;;;;;;5050969;28;20033;-65
2023/05/29 12:20:45;;;;;;;19.80;4.30;;;14.60;98.30;;;;;;5055196;28;20785;-63
2023/05/29 12:23:12;;;;;;;14.80;4.07;;;14.60;98.50;;;;;;5062434;28;20049;-63
2023/05/29 12:25:37;;;;;;;20.48;3.67;;;14.80;99.10;;;;;;5053453;28;20048;-66
2023/05/29 12:28:04;;;;;;;17.60;3.33;;;14.90;99.20;;;;;;5042304;28;20064;-63
2023/05/29 12:30:29;;;;;;;20.05;3.72;;;14.90;97.30;;;;;;5056303;28;20051;-65
2023/05/29 12:32:55;;;;;;;21.38;4.15;;;14.70;97.40;;;;;;5035242;28;20535;-61
2023/05/29 12:35:24;;;;;;;17.48;3.72;;;14.60;96.80;;;;;;5087209;28;20036;-64
2023/05/29 12:37:59;;;;;;;18.13;3.85;;;14.50;97.50;;;;;;5045510;28;20037;-67
2023/05/29 12:40:27;;;;;;;26.83;4.50;;;14.60;97.50;;;;;;5065707;28;20110;-64
2023/05/29 12:42:58;;;;;;;17.77;3.83;;;14.60;97.60;;;;;;5045087;28;20045;-63